Time;durP1;ratioP1;P1;durP2;ratioP2;P2;SDS_P1;SDS_P2;PMS_P1;PMS_P2;Temp;Humidity;BMP_temperature;BMP_pressure;BME280_temperature;BME280_humidity;BME280_pressure;Samples;Min_cycle;Max_cycle;Signal;HPM_P1;HPM_P2
2023/09/25 00:00:51;;;;;;;8.73;2.65;;;10.80;98.60;;;;;;4961012;28;20039;-76
2023/09/25 00:03:18;;;;;;;3.95;2.40;;;10.90;98.60;;;;;;4960524;28;20132;-76
2023/09/25 00:05:46;;;;;;;6.95;2.58;;;10.90;98.50;;;;;;4968644;28;20074;-76
2023/09/25 00:08:13;;;;;;;8.60;3.22;;;10.80;98.40;;;;;;4965122;28;20050;-76
2023/09/25 00:10:41;;;;;;;7.82;3.20;;;10.90;98.50;;;;;;4948689;28;20046;-76
2023/09/25 00:13:09;;;;;;;6.82;2.63;;;10.90;98.20;;;;;;4947493;28;20693;-76
2023/09/25 00:15:42;;;;;;;7.57;2.58;;;10.90;97.90;;;;;;4964852;28;20062;-76
2023/09/25 00:18:09;;;;;;;10.63;2.85;;;10.90;97.90;;;;;;4946783;28;20455;-76
2023/09/25 00:20:37;;;;;;;14.00;2.97;;;10.90;97.90;;;;;;4965381;28;20061;-76
2023/09/25 00:23:04;;;;;;;4.40;2.33;;;10.90;97.70;;;;;;4946980;28;20055;-76
2023/09/25 00:25:31;;;;;;;7.68;2.70;;;10.90;97.50;;;;;;4966321;28;20047;-76
2023/09/25 00:27:59;;;;;;;12.73;2.78;;;10.90;97.20;;;;;;4963971;28;20558;-76
2023/09/25 00:30:26;;;;;;;7.07;2.67;;;11.00;97.10;;;;;;4951265;28;20047;-77
2023/09/25 00:32:54;;;;;;;10.40;2.42;;;10.90;97.00;;;;;;4963765;28;20923;-76
2023/09/25 00:35:21;;;;;;;3.40;2.47;;;11.00;96.80;;;;;;4963700;28;20054;-76
2023/09/25 00:37:48;;;;;;;7.00;2.88;;;10.90;96.70;;;;;;4962829;28;20054;-76
2023/09/25 00:40:19;;;;;;;8.57;2.60;;;10.90;96.60;;;;;;4974547;23;20051;-76
2023/09/25 00:42:48;;;;;;;11.77;2.90;;;10.90;96.70;;;;;;4949743;28;20800;-76
2023/09/25 00:45:16;;;;;;;9.68;4.32;;;10.90;96.70;;;;;;4946577;28;20105;-76
2023/09/25 00:47:43;;;;;;;4.00;2.30;;;10.90;96.60;;;;;;4947781;28;20074;-76
2023/09/25 00:50:11;;;;;;;6.63;3.05;;;10.90;96.50;;;;;;4965676;28;20059;-76
2023/09/25 00:52:43;;;;;;;8.10;3.28;;;10.90;96.40;;;;;;4947108;28;20145;-76
2023/09/25 00:55:13;;;;;;;8.10;2.95;;;10.90;96.50;;;;;;4957666;28;20150;-76
2023/09/25 00:57:42;;;;;;;7.38;2.90;;;10.90;96.40;;;;;;4966641;28;20054;-76
2023/09/25 01:00:11;;;;;;;6.65;2.78;;;10.90;96.50;;;;;;4964924;28;20043;-76
2023/09/25 01:02:39;;;;;;;7.07;3.00;;;10.80;96.40;;;;;;4963338;28;20121;-76
2023/09/25 01:05:11;;;;;;;7.13;3.00;;;10.80;96.40;;;;;;4944915;28;20078;-76
2023/09/25 01:07:40;;;;;;;7.72;3.30;;;10.80;96.50;;;;;;4949644;28;20054;-76
2023/09/25 01:10:15;;;;;;;7.38;3.25;;;10.80;96.40;;;;;;4961922;28;20082;-76
2023/09/25 01:12:43;;;;;;;8.43;2.97;;;10.80;96.20;;;;;;4965020;28;20487;-75
2023/09/25 01:15:11;;;;;;;5.78;3.22;;;10.80;96.20;;;;;;4955097;28;20107;-76
2023/09/25 01:17:38;;;;;;;10.32;3.17;;;10.80;96.10;;;;;;4951956;28;20163;-76
2023/09/25 01:20:15;;;;;;;9.55;3.63;;;10.80;96.20;;;;;;4945742;28;20542;-76
2023/09/25 01:22:46;;;;;;;5.80;3.20;;;10.70;96.10;;;;;;4958116;28;20705;-76
2023/09/25 01:25:15;;;;;;;10.23;3.22;;;10.70;96.20;;;;;;4962698;28;20063;-76
2023/09/25 01:27:44;;;;;;;5.38;3.05;;;10.70;96.10;;;;;;4963120;28;20912;-76
2023/09/25 01:30:13;;;;;;;8.10;3.30;;;10.70;96.30;;;;;;4947145;28;20055;-76
2023/09/25 01:32:44;;;;;;;7.43;3.17;;;10.70;96.30;;;;;;4952741;28;20054;-76
2023/09/25 01:35:16;;;;;;;6.15;3.17;;;10.60;96.70;;;;;;4954938;28;20058;-76
2023/09/25 01:37:44;;;;;;;11.18;2.85;;;10.60;96.70;;;;;;4961238;28;20054;-76
2023/09/25 01:40:18;;;;;;;11.43;3.55;;;10.50;96.90;;;;;;4967159;28;20311;-76
2023/09/25 01:42:46;;;;;;;9.23;4.07;;;10.50;96.80;;;;;;4967916;28;20137;-76
2023/09/25 01:45:18;;;;;;;9.02;3.22;;;10.50;97.00;;;;;;4967834;28;20486;-76
2023/09/25 01:47:51;;;;;;;7.00;3.58;;;10.50;97.20;;;;;;4959212;28;20549;-76
2023/09/25 01:50:29;;;;;;;6.25;3.20;;;10.50;97.20;;;;;;4965001;28;20161;-76
2023/09/25 01:53:00;;;;;;;10.25;3.72;;;10.40;97.00;;;;;;4964882;28;20054;-76
2023/09/25 01:55:29;;;;;;;10.68;3.65;;;10.40;97.00;;;;;;4966004;28;20472;-76
2023/09/25 01:57:56;;;;;;;6.40;3.55;;;10.40;97.20;;;;;;4967598;28;20078;-76
2023/09/25 02:00:23;;;;;;;10.07;4.03;;;10.40;97.20;;;;;;4950646;28;20098;-76
2023/09/25 02:02:50;;;;;;;10.98;3.88;;;10.40;97.20;;;;;;4965892;28;20046;-76
2023/09/25 02:05:17;;;;;;;8.23;3.88;;;10.30;97.30;;;;;;4966511;28;20570;-76
2023/09/25 02:07:44;;;;;;;9.30;3.80;;;10.30;97.50;;;;;;4953333;28;20046;-75
2023/09/25 02:10:12;;;;;;;11.20;4.10;;;10.30;97.60;;;;;;4950548;28;20046;-76
2023/09/25 02:12:38;;;;;;;11.23;3.88;;;10.30;97.60;;;;;;4967665;28;20050;-75
2023/09/25 02:15:07;;;;;;;7.57;3.95;;;10.20;97.90;;;;;;4948123;28;20468;-75
2023/09/25 02:17:35;;;;;;;15.15;4.13;;;10.20;98.00;;;;;;4967191;28;20046;-75
2023/09/25 02:20:20;;;;;;;14.30;4.13;;;10.20;98.20;;;;;;4947302;28;20051;-76
2023/09/25 02:22:48;;;;;;;;;;;10.10;98.00;;;;;;4965951;28;20734;-76
2023/09/25 02:25:16;;;;;;;9.35;4.20;;;10.10;98.30;;;;;;4950919;28;19933;-76
2023/09/25 02:27:45;;;;;;;11.55;4.18;;;10.10;98.60;;;;;;4966028;28;20069;-76
2023/09/25 02:30:13;;;;;;;9.43;4.63;;;10.00;98.70;;;;;;4960016;28;20054;-76
2023/09/25 02:32:43;;;;;;;11.27;4.13;;;10.10;98.60;;;;;;4967613;28;20086;-76
2023/09/25 02:35:11;;;;;;;9.80;5.03;;;10.00;98.70;;;;;;4971148;28;20121;-75
2023/09/25 02:37:40;;;;;;;11.77;5.20;;;10.10;98.80;;;;;;4951285;28;20514;-76
2023/09/25 02:40:09;;;;;;;12.90;4.70;;;10.00;98.70;;;;;;4964322;28;20129;-76
2023/09/25 02:42:36;;;;;;;10.75;5.07;;;10.10;98.70;;;;;;4950680;28;20097;-76
2023/09/25 02:45:03;;;;;;;10.68;4.40;;;10.00;98.80;;;;;;4965962;28;20054;-76
2023/09/25 02:47:30;;;;;;;13.43;4.88;;;10.00;98.60;;;;;;4966852;28;20124;-76
2023/09/25 02:49:57;;;;;;;11.50;5.10;;;10.00;98.80;;;;;;4947967;28;20055;-76
2023/09/25 02:52:24;;;;;;;20.35;5.35;;;10.00;98.70;;;;;;4966505;28;20059;-76
2023/09/25 02:54:51;;;;;;;14.60;5.15;;;9.90;98.80;;;;;;4966139;28;20063;-76
2023/09/25 02:57:19;;;;;;;11.18;5.00;;;9.90;98.70;;;;;;4967199;28;20070;-76
2023/09/25 02:59:47;;;;;;;11.45;5.20;;;9.90;98.90;;;;;;4969284;28;20050;-76
2023/09/25 03:02:14;;;;;;;12.30;5.18;;;9.90;99.10;;;;;;4951274;28;20184;-75
2023/09/25 03:04:41;;;;;;;16.30;5.47;;;9.90;99.10;;;;;;4966639;28;20078;-75
2023/09/25 03:07:08;;;;;;;15.02;5.97;;;9.90;99.30;;;;;;4955065;28;20053;-76
2023/09/25 03:09:35;;;;;;;13.45;5.38;;;9.80;99.10;;;;;;4964107;28;20047;-76
2023/09/25 03:12:02;;;;;;;11.90;5.93;;;9.80;99.20;;;;;;4965372;28;20054;-76
2023/09/25 03:14:29;;;;;;;16.15;5.63;;;9.80;99.40;;;;;;4966677;28;20073;-76
2023/09/25 03:16:56;;;;;;;11.68;5.22;;;9.80;99.40;;;;;;4947960;28;20674;-76
2023/09/25 03:19:23;;;;;;;12.35;6.38;;;9.80;99.50;;;;;;4950162;28;20081;-76
2023/09/25 03:21:50;;;;;;;12.30;5.80;;;9.80;99.40;;;;;;4950747;28;20439;-76
2023/09/25 03:24:17;;;;;;;13.57;5.80;;;9.80;99.80;;;;;;4966367;28;20073;-75
2023/09/25 03:26:44;;;;;;;15.18;5.82;;;9.80;99.50;;;;;;4965722;28;20055;-76
2023/09/25 03:29:10;;;;;;;12.80;5.25;;;9.70;99.30;;;;;;4964882;28;20089;-76
2023/09/25 03:31:37;;;;;;;10.15;5.47;;;9.70;99.40;;;;;;4965220;28;20047;-76
2023/09/25 03:34:04;;;;;;;11.10;5.18;;;9.70;99.40;;;;;;4944800;28;20055;-76
2023/09/25 03:36:31;;;;;;;12.25;6.00;;;9.60;99.20;;;;;;4948421;28;20082;-76
2023/09/25 03:38:58;;;;;;;12.80;6.43;;;9.60;99.60;;;;;;4963564;28;20050;-76
2023/09/25 03:41:25;;;;;;;21.98;6.63;;;9.70;99.70;;;;;;4948228;28;20054;-76
2023/09/25 03:43:52;;;;;;;11.95;5.60;;;9.70;99.80;;;;;;4964223;28;20685;-76
2023/09/25 03:46:19;;;;;;;18.27;6.50;;;9.70;100.00;;;;;;4966517;28;20046;-76
2023/09/25 03:48:47;;;;;;;11.85;5.70;;;9.70;100.00;;;;;;4949624;28;20499;-76
2023/09/25 03:51:14;;;;;;;15.57;6.32;;;9.70;100.00;;;;;;4967723;28;20046;-76
2023/09/25 03:53:41;;;;;;;12.73;6.13;;;9.70;100.00;;;;;;4950170;28;20161;-76
2023/09/25 03:56:08;;;;;;;15.52;6.38;;;9.60;99.90;;;;;;4944782;28;20062;-76
2023/09/25 03:58:35;;;;;;;15.27;6.10;;;9.60;100.00;;;;;;4965622;28;20182;-76
2023/09/25 04:01:02;;;;;;;12.05;6.18;;;9.60;100.00;;;;;;4965573;28;20046;-76
2023/09/25 04:03:30;;;;;;;14.13;6.00;;;9.60;100.00;;;;;;4966798;28;20077;-72
2023/09/25 04:05:58;;;;;;;15.88;6.07;;;9.60;100.00;;;;;;4964929;28;20050;-72
2023/09/25 04:08:25;;;;;;;11.63;5.95;;;9.60;100.00;;;;;;4947296;28;20141;-72
2023/09/25 04:10:52;;;;;;;13.25;6.43;;;9.60;100.00;;;;;;4946062;28;20543;-72
2023/09/25 04:13:22;;;;;;;18.10;6.55;;;9.60;100.00;;;;;;4964151;28;20066;-69
2023/09/25 04:15:52;;;;;;;15.57;7.13;;;9.60;100.00;;;;;;4949340;28;20054;-69
2023/09/25 04:18:21;;;;;;;16.23;6.82;;;9.60;100.00;;;;;;4952714;28;20050;-70
2023/09/25 04:20:49;;;;;;;15.60;7.05;;;9.60;100.00;;;;;;4947323;28;20047;-70
2023/09/25 04:23:16;;;;;;;18.23;7.15;;;9.60;100.00;;;;;;4963560;28;20053;-69
2023/09/25 04:25:51;;;;;;;15.20;6.88;;;9.60;100.00;;;;;;4948235;28;20053;-70
2023/09/25 04:28:18;;;;;;;16.00;7.27;;;9.60;100.00;;;;;;4946818;28;20129;-69
2023/09/25 04:30:45;;;;;;;15.23;7.55;;;9.60;100.00;;;;;;4960148;28;20506;-69
2023/09/25 04:33:12;;;;;;;14.55;7.30;;;9.60;100.00;;;;;;4962950;28;20146;-69
2023/09/25 04:35:39;;;;;;;14.27;7.00;;;9.60;100.00;;;;;;4946660;28;20150;-67
2023/09/25 04:38:06;;;;;;;17.33;7.07;;;9.60;100.00;;;;;;4947437;28;20556;-68
2023/09/25 04:40:33;;;;;;;16.95;7.80;;;9.60;100.00;;;;;;4962025;28;20043;-72
2023/09/25 04:43:01;;;;;;;18.35;7.30;;;9.60;100.00;;;;;;4962846;28;20074;-75
2023/09/25 04:45:29;;;;;;;18.15;7.90;;;9.60;100.00;;;;;;4948275;28;20058;-69
2023/09/25 04:47:59;;;;;;;22.58;6.60;;;9.60;100.00;;;;;;4962288;28;20060;-69
2023/09/25 04:50:27;;;;;;;15.43;6.95;;;9.60;100.00;;;;;;4961891;28;20056;-69
2023/09/25 04:52:54;;;;;;;17.95;8.07;;;9.60;100.00;;;;;;4961820;28;20065;-69
2023/09/25 04:55:21;;;;;;;17.55;7.15;;;9.60;100.00;;;;;;4946970;28;20062;-70
2023/09/25 04:57:48;;;;;;;15.15;7.30;;;9.70;100.00;;;;;;4949592;28;20050;-69
2023/09/25 05:02:48;;;;;;;15.80;6.93;;;9.70;100.00;;;;;;4962494;28;20145;-70
2023/09/25 05:05:16;;;;;;;14.20;7.25;;;9.70;100.00;;;;;;4963621;28;20139;-69
2023/09/25 05:07:45;;;;;;;22.02;8.45;;;9.70;100.00;;;;;;4945914;28;20051;-70
2023/09/25 05:10:14;;;;;;;24.33;8.52;;;9.70;100.00;;;;;;4965579;28;20058;-75
2023/09/25 05:12:42;;;;;;;21.83;7.45;;;9.70;100.00;;;;;;4950760;28;20154;-70
2023/09/25 05:15:10;;;;;;;20.00;7.78;;;9.80;100.00;;;;;;4966156;28;20134;-69
2023/09/25 05:17:39;;;;;;;19.80;8.70;;;9.80;100.00;;;;;;4946051;28;20047;-70
2023/09/25 05:20:11;;;;;;;21.52;9.10;;;9.80;100.00;;;;;;4967126;28;20119;-70
2023/09/25 05:22:39;;;;;;;18.92;7.75;;;9.80;100.00;;;;;;4966196;28;20034;-70
2023/09/25 05:25:09;;;;;;;19.38;8.93;;;9.80;100.00;;;;;;4965865;28;20137;-68
2023/09/25 05:27:37;;;;;;;18.50;7.88;;;9.90;100.00;;;;;;4965903;28;20047;-69
2023/09/25 05:30:05;;;;;;;22.80;9.73;;;9.90;100.00;;;;;;4952175;28;20143;-69
2023/09/25 05:32:33;;;;;;;18.23;8.52;;;10.00;100.00;;;;;;4966981;28;20162;-68
2023/09/25 05:35:01;;;;;;;19.08;8.10;;;10.00;100.00;;;;;;4959848;28;20166;-69
2023/09/25 05:37:28;;;;;;;20.45;9.35;;;10.00;100.00;;;;;;4966839;28;20043;-69
2023/09/25 05:39:55;;;;;;;26.33;8.82;;;10.10;100.00;;;;;;4966543;28;20086;-69
2023/09/25 05:42:21;;;;;;;21.13;9.10;;;10.20;100.00;;;;;;4966306;28;20078;-69
2023/09/25 05:44:48;;;;;;;22.40;8.85;;;10.20;100.00;;;;;;4967928;28;20058;-69
2023/09/25 05:47:15;;;;;;;19.15;8.70;;;10.30;100.00;;;;;;4953690;28;20125;-69
2023/09/25 05:49:42;;;;;;;19.33;8.48;;;10.40;100.00;;;;;;4967511;28;20125;-69
2023/09/25 05:55:20;;;;;;;15.82;8.10;;;10.50;100.00;;;;;;4949331;28;20142;-71
2023/09/25 05:57:47;;;;;;;17.20;9.27;;;10.60;100.00;;;;;;4944795;29;20078;-71
2023/09/25 06:00:14;;;;;;;18.10;8.98;;;10.60;100.00;;;;;;4942979;28;20049;-71
2023/09/25 06:02:42;;;;;;;28.85;8.88;;;10.70;100.00;;;;;;4947307;28;20639;-71
2023/09/25 06:05:13;;;;;;;18.48;9.00;;;10.80;100.00;;;;;;4944641;28;20070;-71
2023/09/25 06:07:42;;;;;;;28.17;9.23;;;10.80;100.00;;;;;;4938704;28;20047;-71
2023/09/25 06:10:09;;;;;;;16.95;8.95;;;10.90;100.00;;;;;;4945130;28;20051;-71
2023/09/25 06:12:39;;;;;;;20.50;9.40;;;11.00;100.00;;;;;;4945215;28;20048;-71
2023/09/25 06:15:11;;;;;;;16.52;9.10;;;11.10;100.00;;;;;;4945785;28;20611;-71
2023/09/25 06:18:31;;;;;;;21.10;8.57;;;11.20;100.00;;;;;;4945831;28;21006;-71
2023/09/25 06:20:58;;;;;;;15.75;7.90;;;11.30;100.00;;;;;;4944118;28;20083;-69
2023/09/25 06:23:25;;;;;;;13.70;7.47;;;11.40;99.90;;;;;;4946755;28;20100;-69
2023/09/25 06:25:53;;;;;;;18.48;8.77;;;11.50;99.60;;;;;;4940885;29;20055;-70
2023/09/25 06:28:23;;;;;;;22.70;8.48;;;11.50;99.30;;;;;;4945943;28;20121;-69
2023/09/25 06:30:50;;;;;;;14.82;8.38;;;11.60;98.70;;;;;;4945481;28;20062;-69
2023/09/25 06:33:17;;;;;;;14.80;7.57;;;11.70;98.70;;;;;;4946968;28;20138;-69
2023/09/25 06:35:44;;;;;;;14.40;8.60;;;11.60;98.30;;;;;;4947163;29;20100;-69
2023/09/25 06:38:11;;;;;;;17.95;8.68;;;11.70;98.10;;;;;;4945936;28;20413;-69
2023/09/25 06:40:45;;;;;;;33.55;15.40;;;11.70;97.90;;;;;;4945561;28;20129;-70
2023/09/25 06:46:17;;;;;;;34.17;13.75;;;12.10;98.30;;;;;;4962976;28;20050;-71
2023/09/25 06:48:50;;;;;;;15.98;8.30;;;12.40;97.60;;;;;;4961962;28;20142;-71
2023/09/25 06:51:18;;;;;;;14.32;7.90;;;12.70;97.20;;;;;;4960845;28;20118;-71
2023/09/25 06:53:44;;;;;;;13.63;7.60;;;13.20;95.50;;;;;;4960682;28;20431;-71
2023/09/25 06:56:11;;;;;;;15.75;8.23;;;13.60;94.00;;;;;;4960963;28;20137;-71
2023/09/25 06:58:39;;;;;;;18.45;7.68;;;13.90;91.90;;;;;;4963001;28;20121;-71
2023/09/25 07:01:06;;;;;;;12.68;7.07;;;14.20;91.20;;;;;;4959780;28;20086;-72
2023/09/25 07:03:33;;;;;;;11.55;6.38;;;14.60;89.20;;;;;;4963004;28;20073;-71
2023/09/25 07:06:00;;;;;;;19.48;6.15;;;15.00;88.20;;;;;;4967183;28;20051;-71
2023/09/25 07:08:27;;;;;;;10.85;5.45;;;15.30;86.90;;;;;;4965579;28;20047;-71
2023/09/25 07:10:54;;;;;;;12.65;5.75;;;15.60;84.70;;;;;;4960635;28;20055;-70
2023/09/25 07:13:22;;;;;;;10.23;5.40;;;15.90;84.00;;;;;;4966046;28;20151;-70
2023/09/25 07:15:49;;;;;;;11.77;5.30;;;16.00;82.10;;;;;;4965075;28;20495;-70
2023/09/25 07:18:19;;;;;;;14.93;9.45;;;16.10;81.90;;;;;;4954699;28;20066;-70
2023/09/25 07:20:53;;;;;;;17.35;8.65;;;16.50;81.90;;;;;;4961416;28;20102;-70
2023/09/25 07:23:20;;;;;;;11.48;6.72;;;16.70;79.90;;;;;;4956653;28;20130;-70
2023/09/25 07:25:46;;;;;;;9.07;4.95;;;16.80;80.20;;;;;;4963823;28;20124;-71
2023/09/25 07:28:13;;;;;;;10.70;5.38;;;16.80;80.80;;;;;;4966595;28;20051;-70
2023/09/25 07:30:44;;;;;;;6.90;4.65;;;17.20;79.20;;;;;;4959702;28;20069;-70
2023/09/25 07:33:13;;;;;;;5.72;4.07;;;17.60;77.90;;;;;;4961302;28;20704;-69
2023/09/25 07:35:41;;;;;;;6.68;4.03;;;17.90;76.20;;;;;;4965564;28;20074;-70
2023/09/25 07:38:08;;;;;;;10.13;4.25;;;18.20;75.50;;;;;;4966766;28;20053;-69
2023/09/25 07:40:35;;;;;;;4.80;3.78;;;18.40;74.70;;;;;;4958464;28;20109;-70
2023/09/25 07:43:03;;;;;;;6.03;3.75;;;18.60;74.30;;;;;;4953996;28;20062;-70
2023/09/25 07:45:32;;;;;;;17.77;4.10;;;18.70;73.60;;;;;;4960922;28;20071;-70
2023/09/25 07:47:59;;;;;;;9.50;3.90;;;18.80;73.30;;;;;;4957071;28;20065;-70
2023/09/25 07:50:26;;;;;;;8.35;3.90;;;19.20;72.80;;;;;;4960874;28;20061;-70
2023/09/25 07:52:54;;;;;;;6.53;3.83;;;19.50;71.30;;;;;;4965459;28;20055;-70
2023/09/25 07:55:21;;;;;;;8.00;3.80;;;19.90;70.40;;;;;;4959453;28;20059;-70
2023/09/25 07:57:50;;;;;;;4.72;2.88;;;20.30;67.50;;;;;;4964861;28;20148;-70
2023/09/25 08:00:21;;;;;;;6.72;3.25;;;20.40;69.00;;;;;;4961182;28;20144;-70
2023/09/25 08:02:51;;;;;;;6.10;3.72;;;20.70;68.40;;;;;;4960173;28;20134;-70
2023/09/25 08:05:19;;;;;;;6.45;3.95;;;20.70;67.40;;;;;;4963155;28;20450;-71
2023/09/25 08:07:48;;;;;;;5.80;2.97;;;20.50;68.60;;;;;;4965072;28;20125;-70
2023/09/25 08:10:17;;;;;;;8.88;3.28;;;20.80;68.10;;;;;;4966544;28;20396;-71
2023/09/25 08:12:44;;;;;;;4.55;3.40;;;21.00;68.30;;;;;;4967307;28;20133;-70
2023/09/25 08:15:12;;;;;;;12.02;7.25;;;21.00;66.90;;;;;;4959931;28;20162;-71
2023/09/25 08:17:44;;;;;;;6.07;4.00;;;21.00;67.60;;;;;;4965757;28;20527;-71
2023/09/25 08:20:17;;;;;;;6.63;4.10;;;20.70;67.10;;;;;;4949212;28;20054;-70
2023/09/25 08:22:45;;;;;;;5.00;3.40;;;20.70;66.90;;;;;;4960362;28;20074;-73
2023/09/25 08:25:12;;;;;;;6.18;3.30;;;20.50;68.20;;;;;;4974501;28;20116;-73
2023/09/25 08:27:40;;;;;;;7.25;3.38;;;20.40;67.40;;;;;;4963896;28;20082;-73
2023/09/25 08:30:08;;;;;;;6.10;3.50;;;20.10;66.90;;;;;;4960819;28;20054;-73
2023/09/25 08:32:35;;;;;;;4.40;3.08;;;19.80;67.90;;;;;;4959401;28;20055;-73
2023/09/25 08:35:03;;;;;;;9.43;3.45;;;19.60;69.10;;;;;;4962115;28;20055;-73
2023/09/25 08:37:32;;;;;;;5.57;2.80;;;19.60;67.60;;;;;;4959943;28;20061;-72
2023/09/25 08:39:59;;;;;;;7.40;2.72;;;19.30;69.00;;;;;;4964853;28;20129;-72
2023/09/25 08:42:26;;;;;;;5.03;2.53;;;19.30;69.80;;;;;;4962261;28;20137;-73
2023/09/25 08:44:59;;;;;;;6.15;2.75;;;19.50;68.60;;;;;;4975944;28;20054;-73
2023/09/25 08:47:27;;;;;;;7.05;3.00;;;19.40;69.30;;;;;;4976601;28;20105;-73
2023/09/25 08:49:55;;;;;;;4.90;3.17;;;19.40;68.30;;;;;;4960996;28;20130;-73
2023/09/25 08:52:23;;;;;;;4.13;2.50;;;19.30;70.10;;;;;;4956827;28;20134;-73
2023/09/25 08:57:30;;;;;;;4.00;2.72;;;19.70;67.70;;;;;;4965966;28;20050;-71
2023/09/25 09:00:16;;;;;;;11.40;2.83;;;19.80;68.30;;;;;;4978903;28;20053;-71
2023/09/25 09:02:43;;;;;;;4.32;2.90;;;20.10;66.80;;;;;;4961606;28;20134;-71
2023/09/25 09:05:11;;;;;;;2.47;2.10;;;19.90;66.60;;;;;;4968550;28;20051;-71
2023/09/25 09:07:55;;;;;;;4.40;2.58;;;19.90;65.90;;;;;;4954085;28;20050;-71
2023/09/25 09:10:22;;;;;;;5.30;3.03;;;20.10;67.80;;;;;;4970316;28;20140;-71
2023/09/25 09:12:53;;;;;;;8.10;2.42;;;20.40;67.40;;;;;;4951354;28;20055;-71
2023/09/25 09:15:30;;;;;;;4.55;2.70;;;21.00;65.60;;;;;;4966206;28;20090;-72
2023/09/25 09:17:58;;;;;;;6.40;2.60;;;21.30;64.30;;;;;;4958677;28;20146;-72
2023/09/25 09:20:36;;;;;;;3.97;2.45;;;21.40;63.20;;;;;;4953094;28;20308;-71
2023/09/25 09:23:06;;;;;;;4.53;2.55;;;22.10;64.30;;;;;;4968159;28;20505;-71
2023/09/25 09:25:33;;;;;;;14.45;3.20;;;22.70;60.90;;;;;;4949333;28;20057;-71
2023/09/25 09:28:03;;;;;;;3.88;2.45;;;23.00;61.60;;;;;;4961418;28;20053;-71
2023/09/25 09:30:30;;;;;;;10.43;2.47;;;22.90;60.40;;;;;;4967392;28;20066;-72
2023/09/25 09:32:58;;;;;;;8.65;2.10;;;23.10;58.40;;;;;;4967553;28;20069;-72
2023/09/25 09:35:25;;;;;;;2.97;2.58;;;22.80;57.70;;;;;;4966604;28;20055;-72
2023/09/25 09:37:56;;;;;;;10.07;2.33;;;22.30;58.30;;;;;;4966201;28;20092;-71
2023/09/25 09:40:25;;;;;;;3.13;2.33;;;22.10;61.30;;;;;;4950574;28;20047;-71
2023/09/25 09:42:53;;;;;;;2.35;1.92;;;22.30;62.90;;;;;;4969055;28;20431;-72
2023/09/25 09:45:21;;;;;;;2.83;2.10;;;22.50;62.50;;;;;;4964187;28;20055;-71
2023/09/25 09:47:50;;;;;;;3.75;2.10;;;22.80;62.00;;;;;;4958011;28;20043;-72
2023/09/25 09:50:28;;;;;;;4.60;1.83;;;22.80;59.00;;;;;;4967066;28;20054;-72
2023/09/25 09:52:56;;;;;;;3.42;2.00;;;22.90;58.00;;;;;;4947886;28;20463;-72
2023/09/25 09:55:24;;;;;;;5.40;2.85;;;22.90;60.50;;;;;;4966730;28;20057;-72
2023/09/25 09:57:51;;;;;;;4.10;2.05;;;23.30;59.60;;;;;;4969836;28;20051;-72
2023/09/25 10:00:18;;;;;;;2.90;1.80;;;23.50;58.30;;;;;;4961455;28;20062;-71
2023/09/25 10:02:47;;;;;;;4.95;2.08;;;23.80;56.10;;;;;;4966902;28;20186;-71
2023/09/25 10:05:15;;;;;;;5.25;1.90;;;23.30;58.80;;;;;;4960953;28;20134;-72
2023/09/25 10:08:06;;;;;;;5.88;1.70;;;23.50;58.90;;;;;;4969007;28;20055;-72
2023/09/25 10:10:35;;;;;;;2.60;1.50;;;23.40;56.40;;;;;;4942375;28;20552;-71
2023/09/25 10:13:32;;;;;;;4.07;1.80;;;23.30;58.60;;;;;;4967986;28;20712;-72
2023/09/25 10:16:01;;;;;;;1.60;1.45;;;23.20;58.50;;;;;;4949317;28;20051;-71
2023/09/25 10:18:29;;;;;;;1.95;1.52;;;23.40;58.00;;;;;;4966007;28;20569;-72
2023/09/25 10:21:10;;;;;;;7.43;1.90;;;23.70;57.50;;;;;;4966697;28;20058;-72
2023/09/25 10:23:46;;;;;;;3.50;1.60;;;23.90;56.90;;;;;;4964304;28;20051;-71
2023/09/25 10:26:25;;;;;;;2.78;1.35;;;23.50;55.90;;;;;;4964264;28;20157;-72
2023/09/25 10:29:14;;;;;;;2.38;1.77;;;23.20;56.10;;;;;;4948298;28;20118;-71
2023/09/25 10:31:47;;;;;;;17.15;2.00;;;23.40;55.40;;;;;;4968077;28;20058;-72
2023/09/25 10:34:14;;;;;;;5.80;1.60;;;23.40;56.60;;;;;;4964259;28;20398;-73
2023/09/25 10:36:44;;;;;;;3.38;1.88;;;23.10;55.30;;;;;;4966313;28;20054;-73
2023/09/25 10:39:15;;;;;;;3.30;1.58;;;23.70;57.80;;;;;;4953216;28;20078;-74
2023/09/25 10:41:45;;;;;;;4.13;2.00;;;23.80;55.70;;;;;;4965281;28;20101;-74
2023/09/25 10:44:12;;;;;;;2.30;1.30;;;24.40;58.10;;;;;;4964929;28;20101;-73
2023/09/25 10:46:40;;;;;;;2.85;1.42;;;25.00;54.20;;;;;;4965325;28;20640;-72
2023/09/25 10:49:11;;;;;;;2.83;1.77;;;25.40;52.50;;;;;;4968036;28;20109;-72
2023/09/25 10:51:37;;;;;;;2.78;1.20;;;25.30;50.90;;;;;;4962539;28;20768;-72
2023/09/25 10:54:05;;;;;;;1.88;1.50;;;25.20;49.50;;;;;;4965074;28;20462;-72
2023/09/25 10:56:32;;;;;;;2.47;1.33;;;24.80;50.60;;;;;;4973186;28;20043;-72
2023/09/25 10:59:01;;;;;;;14.40;2.70;;;25.00;52.50;;;;;;4962853;28;20172;-72
2023/09/25 11:01:31;;;;;;;2.30;1.23;;;25.40;51.20;;;;;;4964256;28;20122;-72
2023/09/25 11:03:59;;;;;;;1.55;1.30;;;25.90;50.80;;;;;;4965165;28;20129;-72
2023/09/25 11:06:28;;;;;;;2.92;1.60;;;26.70;50.50;;;;;;4966027;28;20047;-72
2023/09/25 11:09:05;;;;;;;10.10;1.27;;;27.60;48.30;;;;;;4965674;28;20104;-72
2023/09/25 11:11:32;;;;;;;4.80;1.52;;;28.20;48.10;;;;;;4963285;28;20100;-72
2023/09/25 11:13:59;;;;;;;7.22;1.05;;;28.30;47.20;;;;;;4965905;28;20415;-72
2023/09/25 11:16:28;;;;;;;1.20;1.05;;;28.50;48.00;;;;;;4948119;28;20051;-72
2023/09/25 11:19:13;;;;;;;1.52;1.10;;;29.00;46.30;;;;;;4965076;28;20455;-72
2023/09/25 11:21:46;;;;;;;1.77;1.10;;;28.90;43.80;;;;;;4943558;28;20078;-72
2023/09/25 11:24:13;;;;;;;3.33;1.40;;;28.20;46.30;;;;;;4951965;28;20054;-72
2023/09/25 11:26:42;;;;;;;5.50;1.55;;;28.80;45.20;;;;;;4949196;28;20058;-72
2023/09/25 11:29:10;;;;;;;11.25;2.85;;;28.90;46.60;;;;;;4970050;28;20483;-72
2023/09/25 11:31:39;;;;;;;65.47;6.22;;;29.30;46.50;;;;;;4960653;28;20509;-72
2023/09/25 11:34:25;;;;;;;32.58;3.42;;;30.20;44.30;;;;;;4963788;28;20051;-72
2023/09/25 11:36:53;;;;;;;2.30;1.45;;;30.20;44.10;;;;;;4949210;28;20046;-72
2023/09/25 11:39:20;;;;;;;5.82;1.70;;;30.90;42.70;;;;;;4947725;28;20098;-72
2023/09/25 11:41:47;;;;;;;2.95;1.45;;;31.10;42.90;;;;;;4964279;28;20055;-72
2023/09/25 11:44:14;;;;;;;12.13;1.50;;;31.30;43.00;;;;;;4950038;28;20050;-72
2023/09/25 11:46:42;;;;;;;3.63;1.50;;;30.70;43.10;;;;;;4965951;28;20488;-72
2023/09/25 11:49:09;;;;;;;6.18;1.45;;;31.10;42.80;;;;;;4947747;28;20069;-72
2023/09/25 11:51:36;;;;;;;5.60;1.60;;;31.00;42.40;;;;;;4964103;28;20500;-73
2023/09/25 11:54:04;;;;;;;2.80;1.30;;;31.20;41.30;;;;;;4971276;28;20054;-73
2023/09/25 11:56:32;;;;;;;3.25;1.30;;;31.10;42.40;;;;;;4947608;28;20074;-73
2023/09/25 11:59:00;;;;;;;2.42;1.27;;;31.00;43.10;;;;;;4964883;28;20065;-73
2023/09/25 12:01:27;;;;;;;2.13;1.10;;;31.10;42.10;;;;;;4962975;28;20047;-73
2023/09/25 12:03:55;;;;;;;1.88;1.40;;;31.40;42.30;;;;;;4961556;28;20046;-73
2023/09/25 12:06:26;;;;;;;2.42;1.45;;;30.80;41.60;;;;;;4975458;28;20069;-73
2023/09/25 12:08:54;;;;;;;4.47;1.30;;;30.20;42.40;;;;;;4963814;28;20070;-73
2023/09/25 12:11:21;;;;;;;1.70;1.42;;;29.90;42.60;;;;;;4960736;28;20070;-73
2023/09/25 12:13:49;;;;;;;3.60;1.33;;;29.10;43.10;;;;;;4956098;28;20050;-73
2023/09/25 12:16:17;;;;;;;1.95;1.58;;;28.80;44.20;;;;;;4964897;28;20059;-73
2023/09/25 12:18:44;;;;;;;3.20;1.70;;;28.30;43.60;;;;;;4964496;28;20141;-73
2023/09/25 12:21:11;;;;;;;4.10;1.50;;;27.50;45.20;;;;;;4951179;28;20062;-73
2023/09/25 12:23:38;;;;;;;3.45;1.50;;;26.80;47.30;;;;;;4967167;28;20137;-73
2023/09/25 12:26:06;;;;;;;2.28;1.40;;;27.30;47.20;;;;;;4968487;28;20618;-73
2023/09/25 12:28:34;;;;;;;4.60;1.58;;;27.60;45.00;;;;;;4969587;28;20047;-73
2023/09/25 12:31:01;;;;;;;3.65;1.63;;;27.40;44.90;;;;;;4954157;28;20639;-73
2023/09/25 12:33:29;;;;;;;6.45;2.83;;;27.30;47.80;;;;;;4964528;28;20050;-73
2023/09/25 12:35:56;;;;;;;2.63;1.48;;;27.90;47.30;;;;;;4947534;28;20054;-73
2023/09/25 12:38:23;;;;;;;10.57;2.63;;;28.40;46.50;;;;;;4963376;28;20157;-72
2023/09/25 12:40:50;;;;;;;5.35;1.80;;;28.90;46.70;;;;;;4945989;28;20106;-73
2023/09/25 12:43:20;;;;;;;4.80;1.35;;;29.20;45.90;;;;;;4964983;28;20055;-73
2023/09/25 12:45:47;;;;;;;1.67;1.23;;;29.80;44.40;;;;;;4955901;28;20102;-73
2023/09/25 12:48:14;;;;;;;2.58;1.45;;;30.20;44.70;;;;;;4964669;28;20411;-73
2023/09/25 12:50:41;;;;;;;3.15;1.40;;;30.60;44.20;;;;;;4963630;28;20169;-73
2023/09/25 12:53:08;;;;;;;2.05;1.30;;;31.00;42.70;;;;;;4946332;28;20086;-73
2023/09/25 12:55:35;;;;;;;1.98;1.35;;;30.80;41.90;;;;;;4945274;28;20054;-73
2023/09/25 12:58:03;;;;;;;1.23;1.00;;;30.70;41.90;;;;;;4966681;28;20059;-73
2023/09/25 13:00:30;;;;;;;1.73;1.20;;;30.30;41.30;;;;;;4964379;28;20090;-73
2023/09/25 13:02:57;;;;;;;5.10;1.33;;;30.20;42.10;;;;;;4964222;28;20090;-73